createdAt,value
2022-10-19T00:35:03.854Z,101123.70
2022-10-19T00:40:08.520Z,101128.02
2022-10-19T00:45:15.824Z,101125.21
2022-10-19T00:52:30.523Z,101127.11
2022-10-19T00:59:11.208Z,101124.19
2022-10-19T01:19:12.746Z,101115.71
2022-10-19T01:24:37.114Z,101110.67
2022-10-19T01:37:56.806Z,101102.46
2022-10-19T01:56:06.382Z,101079.60
2022-10-19T02:07:23.046Z,101073.98
2022-10-19T02:12:26.039Z,101068.83
2022-10-19T02:19:08.699Z,101065.39
2022-10-19T02:33:30.275Z,101059.88
2022-10-19T02:56:09.157Z,101048.83
2022-10-19T03:01:13.018Z,101047.52
2022-10-19T03:06:15.754Z,101046.23
2022-10-19T03:13:29.264Z,101043.69
2022-10-19T03:18:32.507Z,101041.23
2022-10-19T03:23:35.464Z,101038.45
2022-10-19T03:28:38.175Z,101033.43
2022-10-19T03:33:40.929Z,101037.05
2022-10-19T03:38:43.821Z,101035.10
2022-10-19T03:43:46.696Z,101034.37
2022-10-19T03:48:49.627Z,101030.34
2022-10-19T03:54:01.878Z,101029.59
2022-10-19T03:59:05.621Z,101032.98
2022-10-19T04:04:15.755Z,101027.39
2022-10-19T04:09:20.558Z,101027.07
2022-10-19T04:14:32.084Z,101027.69
2022-10-19T04:19:35.677Z,101022.39
2022-10-19T04:24:38.428Z,101021.19
2022-10-19T04:29:41.169Z,101015.22
2022-10-19T04:34:43.854Z,101010.30
2022-10-19T04:39:46.544Z,101006.34
2022-10-19T04:44:49.218Z,101009.39
2022-10-19T04:49:51.932Z,101008.32
2022-10-19T04:54:54.597Z,101005.89
2022-10-19T04:59:57.231Z,100998.47
2022-10-19T05:04:59.890Z,100994.29
2022-10-19T05:10:02.611Z,100993.80
2022-10-19T05:15:05.839Z,100982.30
2022-10-19T05:20:11.264Z,100984.91
2022-10-19T05:25:13.967Z,100989.21
2022-10-19T05:30:16.905Z,100993.80
2022-10-19T05:35:22.634Z,100992.98
2022-10-19T05:40:25.631Z,100995.70
2022-10-19T05:45:28.258Z,100991.23
2022-10-19T05:50:30.952Z,100996.39
2022-10-19T05:55:35.845Z,100997.79
2022-10-19T06:00:38.539Z,101000.31
2022-10-19T06:05:41.263Z,100996.46
2022-10-19T06:10:44.825Z,100998.94
2022-10-19T06:15:50.923Z,100991.33
2022-10-19T06:20:53.765Z,100992.90
2022-10-19T06:25:56.554Z,100990.48
2022-10-19T06:30:59.488Z,100989.45
2022-10-19T06:36:14.274Z,100989.65
2022-10-19T06:41:17.123Z,100996.45
2022-10-19T06:46:23.190Z,101005.08
2022-10-19T06:51:27.620Z,101001.06
2022-10-19T06:56:31.401Z,100996.21
2022-10-19T07:01:34.042Z,100996.08
2022-10-19T07:06:36.732Z,100994.65
2022-10-19T07:11:45.516Z,100997.83
2022-10-19T07:16:50.367Z,101001.78
2022-10-19T07:21:53.460Z,101007.81
2022-10-19T07:26:56.201Z,101010.54
2022-10-19T07:31:58.837Z,101006.09
2022-10-19T07:37:01.769Z,101001.77
2022-10-19T07:42:05.076Z,101008.81
2022-10-19T07:47:07.771Z,101012.69
2022-10-19T07:52:10.391Z,101007.34
2022-10-19T07:57:13.221Z,101013.61
2022-10-19T08:02:16.951Z,101018.98
2022-10-19T08:07:19.769Z,101014.19
2022-10-19T08:12:22.466Z,101013.52
2022-10-19T08:17:25.198Z,101010.80
2022-10-19T08:22:27.973Z,101008.92
2022-10-19T08:27:30.693Z,101012.27
2022-10-19T08:32:33.536Z,101007.66
2022-10-19T08:37:50.826Z,101007.01
2022-10-19T08:43:17.371Z,101008.88
2022-10-19T08:48:36.386Z,101005.92
2022-10-19T08:53:56.551Z,101006.11
2022-10-19T08:59:26.784Z,101006.38
2022-10-19T09:04:41.944Z,101012.34
2022-10-19T09:09:50.611Z,101016.70
2022-10-19T09:15:00.983Z,101018.14
2022-10-19T09:20:14.987Z,101020.39
2022-10-19T09:25:21.993Z,101021.13
2022-10-19T09:30:24.666Z,101021.14
2022-10-19T09:35:37.465Z,101030.02
2022-10-19T09:40:40.245Z,101032.39
2022-10-19T09:45:57.374Z,101036.15
2022-10-19T09:51:03.452Z,101037.79
2022-10-19T09:56:07.994Z,101038.21
2022-10-19T10:01:10.749Z,101038.02
2022-10-19T10:06:17.807Z,101038.77
2022-10-19T10:11:25.085Z,101062.97
2022-10-19T10:16:33.042Z,101087.73
2022-10-19T10:21:54.597Z,101093.43
2022-10-19T10:27:05.169Z,101086.84
2022-10-19T10:32:08.152Z,101082.35
2022-10-19T10:37:29.925Z,101081.83
2022-10-19T10:42:35.626Z,101075.66
2022-10-19T10:47:39.306Z,101076.36
2022-10-19T10:52:42.054Z,101079.22
2022-10-19T10:57:47.877Z,101082.00
2022-10-19T11:03:25.506Z,101077.68
2022-10-19T11:09:16.030Z,101075.30
2022-10-19T11:14:57.384Z,101081.55
2022-10-19T11:20:00.063Z,101080.05
2022-10-19T11:25:14.610Z,101080.89
2022-10-19T11:30:20.164Z,101082.14
2022-10-19T11:35:53.019Z,101078.95
2022-10-19T11:41:26.514Z,101082.77
2022-10-19T11:47:06.779Z,101085.54
2022-10-19T11:52:17.623Z,101083.02
2022-10-19T11:57:26.459Z,101090.19
2022-10-19T12:03:06.433Z,101083.73
2022-10-19T12:08:57.844Z,101085.54
2022-10-19T12:14:04.051Z,101087.84
2022-10-19T12:19:06.855Z,101092.41
2022-10-19T12:24:21.707Z,101092.04
2022-10-19T12:29:32.038Z,101098.54
2022-10-19T12:34:55.692Z,101096.43
2022-10-19T12:40:09.386Z,101099.42
2022-10-19T12:45:30.802Z,101103.00
2022-10-19T12:50:49.306Z,101106.78
2022-10-19T12:56:11.077Z,101108.10
2022-10-19T13:01:21.040Z,101112.11
2022-10-19T13:06:23.686Z,101109.39
2022-10-19T13:11:26.497Z,101113.55
2022-10-19T13:16:29.202Z,101114.60
2022-10-19T13:22:24.609Z,101115.58
2022-10-19T13:27:28.206Z,101118.98
2022-10-19T13:32:37.917Z,101110.52
2022-10-19T13:37:40.928Z,101123.59
2022-10-19T13:42:43.722Z,101143.27
2022-10-19T13:47:47.642Z,101153.28
2022-10-19T13:53:25.427Z,101162.84
2022-10-19T13:59:05.226Z,101168.62
2022-10-19T14:04:33.949Z,101178.31
2022-10-19T14:10:08.556Z,101181.53
2022-10-19T14:15:34.874Z,101183.08
2022-10-19T14:20:39.071Z,101187.80
2022-10-19T14:25:41.771Z,101196.54
2022-10-19T14:30:44.989Z,101212.73
2022-10-19T14:35:50.072Z,101219.18
2022-10-19T14:40:53.184Z,101225.67
2022-10-19T14:46:07.785Z,101222.06
2022-10-19T14:51:40.360Z,101224.84
2022-10-19T14:56:50.949Z,101228.79
2022-10-19T15:01:59.581Z,101241.35
2022-10-19T15:07:03.840Z,101243.21
2022-10-19T15:12:10.277Z,101247.59
2022-10-19T15:17:30.920Z,101245.98
2022-10-19T15:22:33.838Z,101250.59
2022-10-19T15:27:46.099Z,101256.89
2022-10-19T15:33:13.148Z,101263.86
2022-10-19T15:38:28.776Z,101268.92
2022-10-19T15:43:34.428Z,101280.10
2022-10-19T15:48:52.334Z,101282.77
2022-10-19T15:54:24.770Z,101295.50
2022-10-19T15:59:30.587Z,101306.38
2022-10-19T16:04:33.369Z,101312.07
2022-10-19T16:09:36.112Z,101319.41
2022-10-19T16:14:38.880Z,101323.89
2022-10-19T16:19:50.920Z,101336.60
2022-10-19T16:24:53.999Z,101341.15
2022-10-19T16:29:56.864Z,101347.48
2022-10-19T16:34:59.655Z,101353.75
2022-10-19T16:40:02.624Z,101357.55
2022-10-19T16:45:06.183Z,101358.52
2022-10-19T16:50:10.810Z,101364.62
2022-10-19T16:55:14.120Z,101372.66
2022-10-19T17:00:16.921Z,101379.10
2022-10-19T17:05:19.629Z,101384.69
2022-10-19T17:10:23.864Z,101390.66
2022-10-19T17:15:43.413Z,101398.72
2022-10-19T17:20:46.982Z,101406.16
2022-10-19T17:25:49.690Z,101411.62
2022-10-19T17:30:52.921Z,101419.47
2022-10-19T17:35:55.579Z,101423.61
2022-10-19T17:41:03.324Z,101432.81
2022-10-19T17:46:08.198Z,101441.27
2022-10-19T17:51:14.139Z,101443.90
2022-10-19T17:56:19.769Z,101452.94
2022-10-19T18:01:22.950Z,101454.55
2022-10-19T18:06:31.629Z,101455.88
2022-10-19T18:11:43.799Z,101455.71
2022-10-19T18:16:46.904Z,101460.04
2022-10-19T18:21:49.778Z,101462.73
2022-10-19T18:26:53.040Z,101465.80
2022-10-19T18:31:56.621Z,101466.08
2022-10-19T18:36:59.376Z,101468.16
2022-10-19T18:42:02.100Z,101461.10
2022-10-19T18:47:04.759Z,101463.13
2022-10-19T18:52:07.417Z,101469.73
2022-10-19T18:57:10.140Z,101474.00
2022-10-19T19:02:22.351Z,101480.84
2022-10-19T19:07:26.284Z,101487.52
2022-10-19T19:12:31.127Z,101494.20
2022-10-19T19:17:34.722Z,101491.07
2022-10-19T19:22:37.735Z,101495.59
2022-10-19T19:27:40.730Z,101500.73
2022-10-19T19:32:43.558Z,101507.32
2022-10-19T19:37:46.214Z,101517.69
2022-10-19T19:42:48.953Z,101521.48
2022-10-19T19:47:51.632Z,101532.13
2022-10-19T19:52:54.254Z,101541.59
2022-10-19T19:57:56.968Z,101547.48
2022-10-19T20:03:00.248Z,101557.88
2022-10-19T20:08:02.925Z,101559.27
2022-10-19T20:13:05.540Z,101566.52
2022-10-19T20:18:08.374Z,101573.30
2022-10-19T20:23:11.205Z,101577.60
2022-10-19T20:28:13.935Z,101585.69
2022-10-19T20:33:17.089Z,101582.67
2022-10-19T20:38:19.752Z,101590.16
2022-10-19T20:43:22.403Z,101601.01
2022-10-19T20:48:25.065Z,101609.52
2022-10-19T20:53:27.685Z,101607.29
2022-10-19T20:58:31.820Z,101608.44
2022-10-19T21:03:34.652Z,101605.57
2022-10-19T21:08:37.569Z,101603.71
2022-10-19T21:13:40.327Z,101605.98
2022-10-19T21:18:43.832Z,101610.88
2022-10-19T21:23:48.028Z,101611.30
2022-10-19T21:28:53.159Z,101617.31
2022-10-19T21:33:55.826Z,101619.45
2022-10-19T21:38:59.604Z,101621.80
2022-10-19T21:44:02.308Z,101624.58
2022-10-19T21:49:04.989Z,101623.10
2022-10-19T21:54:13.256Z,101617.33
2022-10-19T21:59:16.160Z,101616.70
2022-10-19T22:04:18.911Z,101617.89
2022-10-19T22:09:22.048Z,101615.11
2022-10-19T22:14:24.665Z,101618.19
2022-10-19T22:19:27.495Z,101623.70
2022-10-19T22:24:30.305Z,101625.64
2022-10-19T22:29:33.055Z,101631.25
2022-10-19T22:34:36.989Z,101633.36
2022-10-19T22:39:39.605Z,101637.62
2022-10-19T22:44:42.226Z,101641.75
2022-10-19T22:49:45.026Z,101644.41
2022-10-19T22:54:48.198Z,101648.27
2022-10-19T22:59:51.058Z,101647.80
2022-10-19T23:04:53.724Z,101649.30
2022-10-19T23:09:56.953Z,101655.64
2022-10-19T23:15:00.974Z,101658.02
2022-10-19T23:20:03.988Z,101660.08
2022-10-19T23:25:07.517Z,101671.84
2022-10-19T23:30:10.905Z,101676.66
2022-10-19T23:35:13.758Z,101675.70
2022-10-19T23:40:16.439Z,101685.08
2022-10-19T23:45:19.392Z,101695.17
2022-10-19T23:50:22.329Z,101705.25
2022-10-19T23:55:25.140Z,101713.91
